createdAt,value
2018-08-10T00:02:13.859Z,97088.03
2018-08-10T00:04:41.063Z,97092.45
2018-08-10T00:07:08.292Z,97095.55
2018-08-10T00:09:35.406Z,97097.28
2018-08-10T00:12:02.659Z,97097.08
2018-08-10T00:14:29.835Z,97105.16
2018-08-10T00:16:57.091Z,97096.89
2018-08-10T00:19:24.377Z,97092.27
2018-08-10T00:21:51.497Z,97089.77
2018-08-10T00:24:18.652Z,97097.84
2018-08-10T00:26:45.805Z,97099.41
2018-08-10T00:29:13.017Z,97096.33
2018-08-10T00:31:40.169Z,97104.98
2018-08-10T00:34:07.372Z,97113.44
2018-08-10T00:36:34.480Z,97103.81
2018-08-10T00:39:01.689Z,97113.64
2018-08-10T00:41:28.886Z,97107.69
2018-08-10T00:43:56.003Z,97112.87
2018-08-10T00:46:23.181Z,97116.72
2018-08-10T00:48:50.366Z,97121.91
2018-08-10T00:51:17.512Z,97130.58
2018-08-10T00:53:44.804Z,97126.75
2018-08-10T00:56:11.885Z,97130.59
2018-08-10T00:58:39.006Z,97136.14
2018-08-10T01:01:06.165Z,97136.31
2018-08-10T01:03:33.328Z,97136.63
2018-08-10T01:06:00.477Z,97139.90
2018-08-10T01:08:27.634Z,97139.33
2018-08-10T01:10:54.740Z,97145.09
2018-08-10T01:13:21.982Z,97153.89
2018-08-10T01:15:49.038Z,97151.74
2018-08-10T01:18:16.211Z,97150.23
2018-08-10T01:20:43.365Z,97138.84
2018-08-10T01:23:10.521Z,97146.55
2018-08-10T01:25:37.660Z,97148.06
2018-08-10T01:28:05.319Z,97149.66
2018-08-10T01:30:33.619Z,97151.98
2018-08-10T01:33:01.126Z,97156.40
2018-08-10T01:35:28.712Z,97146.97
2018-08-10T01:37:57.104Z,97139.85
2018-08-10T01:40:24.250Z,97138.70
2018-08-10T01:42:51.401Z,97135.83
2018-08-10T01:45:18.541Z,97134.05
2018-08-10T01:47:45.990Z,97121.73
2018-08-10T01:50:13.152Z,97124.19
2018-08-10T01:52:40.371Z,97119.75
2018-08-10T01:55:08.067Z,97116.43
2018-08-10T01:57:36.749Z,97124.13
2018-08-10T02:00:05.289Z,97119.75
2018-08-10T02:02:32.519Z,97125.19
2018-08-10T02:04:59.640Z,97127.11
2018-08-10T02:07:26.796Z,97126.87
2018-08-10T02:09:53.944Z,97127.95
2018-08-10T02:12:21.181Z,97138.33
2018-08-10T02:14:48.339Z,97136.03
2018-08-10T02:17:15.442Z,97138.84
2018-08-10T02:19:42.680Z,97132.98
2018-08-10T02:22:09.848Z,97144.11
2018-08-10T02:24:36.953Z,97147.23
2018-08-10T02:27:04.097Z,97156.43
2018-08-10T02:29:31.265Z,97155.48
2018-08-10T02:31:58.411Z,97164.56
2018-08-10T02:34:25.724Z,97166.03
2018-08-10T02:36:52.864Z,97168.41
2018-08-10T02:39:20.049Z,97168.50
2018-08-10T02:41:47.204Z,97164.92
2018-08-10T02:44:14.377Z,97167.27
2018-08-10T02:46:41.832Z,97169.70
2018-08-10T02:49:08.993Z,97181.45
2018-08-10T02:51:36.137Z,97182.33
2018-08-10T02:54:03.451Z,97189.91
2018-08-10T02:56:30.751Z,97193.91
2018-08-10T02:58:57.928Z,97201.04
2018-08-10T03:01:25.114Z,97210.44
2018-08-10T03:03:52.499Z,97204.54
2018-08-10T03:06:19.619Z,97204.81
2018-08-10T03:08:46.788Z,97204.86
2018-08-10T03:11:13.897Z,97206.17
2018-08-10T03:13:41.016Z,97199.73
2018-08-10T03:16:08.187Z,97196.69
2018-08-10T03:18:35.416Z,97192.79
2018-08-10T03:21:02.612Z,97200.58
2018-08-10T03:23:29.815Z,97200.38
2018-08-10T03:25:57.050Z,97202.84
2018-08-10T03:28:24.333Z,97199.96
2018-08-10T03:30:51.464Z,97207.22
2018-08-10T03:33:18.620Z,97205.65
2018-08-10T03:35:46.088Z,97209.08
2018-08-10T03:38:13.264Z,97202.91
2018-08-10T03:40:40.457Z,97214.94
2018-08-10T03:45:34.221Z,97226.80
2018-08-10T03:48:01.391Z,97221.36
2018-08-10T03:50:28.536Z,97224.94
2018-08-10T03:52:55.679Z,97229.11
2018-08-10T03:55:22.788Z,97230.03
2018-08-10T03:57:49.982Z,97238.27
2018-08-10T04:00:17.108Z,97240.70
2018-08-10T04:02:44.304Z,97246.64
2018-08-10T04:05:12.089Z,97241.04
2018-08-10T04:07:39.396Z,97244.63
2018-08-10T04:10:07.194Z,97247.20
2018-08-10T04:12:34.746Z,97247.27
2018-08-10T04:15:01.916Z,97253.33
2018-08-10T04:17:29.133Z,97247.06
2018-08-10T04:19:56.272Z,97256.28
2018-08-10T04:22:24.305Z,97265.25
2018-08-10T04:24:51.460Z,97269.12
2018-08-10T04:27:18.776Z,97263.19
2018-08-10T04:29:46.172Z,97274.45
2018-08-10T04:32:13.324Z,97275.76
2018-08-10T04:34:40.405Z,97278.00
2018-08-10T04:37:07.541Z,97281.11
2018-08-10T04:39:34.668Z,97283.47
2018-08-10T04:42:01.807Z,97292.19
2018-08-10T04:44:28.963Z,97301.66
2018-08-10T04:46:56.124Z,97303.00
2018-08-10T04:49:23.281Z,97305.16
2018-08-10T04:51:50.424Z,97306.02
2018-08-10T04:54:17.588Z,97309.73
2018-08-10T04:56:44.803Z,97316.37
2018-08-10T04:59:11.944Z,97323.25
2018-08-10T05:01:39.233Z,97328.14
2018-08-10T05:04:06.457Z,97330.30
2018-08-10T05:06:33.593Z,97335.34
2018-08-10T05:09:00.760Z,97339.25
2018-08-10T05:11:27.892Z,97350.26
2018-08-10T05:13:55.035Z,97345.50
2018-08-10T05:16:22.227Z,97346.16
2018-08-10T05:18:49.417Z,97348.13
2018-08-10T05:21:16.561Z,97358.23
2018-08-10T05:23:43.743Z,97358.59
2018-08-10T05:26:10.900Z,97362.95
2018-08-10T05:28:38.089Z,97364.81
2018-08-10T05:31:05.237Z,97362.92
2018-08-10T05:33:32.389Z,97370.34
2018-08-10T05:35:59.863Z,97378.83
2018-08-10T05:38:27.003Z,97374.75
2018-08-10T05:40:54.147Z,97385.05
2018-08-10T05:43:21.276Z,97388.72
2018-08-10T05:45:48.552Z,97387.09
2018-08-10T05:48:15.668Z,97391.31
2018-08-10T05:50:42.912Z,97393.75
2018-08-10T05:53:10.073Z,97403.63
2018-08-10T05:55:37.260Z,97408.11
2018-08-10T05:58:04.777Z,97402.08
2018-08-10T06:00:31.961Z,97409.64
2018-08-10T06:02:59.153Z,97424.89
2018-08-10T06:05:26.268Z,97422.45
2018-08-10T06:07:53.435Z,97424.58
2018-08-10T06:10:20.580Z,97425.97
2018-08-10T06:12:47.719Z,97428.55
2018-08-10T06:15:14.877Z,97431.58
2018-08-10T06:17:42.017Z,97431.64
2018-08-10T06:20:10.305Z,97435.94
2018-08-10T06:22:37.476Z,97437.36
2018-08-10T06:25:04.979Z,97442.38
2018-08-10T06:27:32.062Z,97441.69
2018-08-10T06:29:59.241Z,97453.16
2018-08-10T06:32:26.385Z,97456.88
2018-08-10T06:34:53.541Z,97465.05
2018-08-10T06:37:20.685Z,97468.73
2018-08-10T06:39:47.831Z,97469.50
2018-08-10T06:42:14.964Z,97477.69
2018-08-10T06:44:42.176Z,97458.83
2018-08-10T06:47:09.361Z,97476.52
2018-08-10T06:49:36.512Z,97482.75
2018-08-10T06:52:03.831Z,97494.44
2018-08-10T06:54:30.964Z,97495.16
2018-08-10T06:56:58.172Z,97491.20
2018-08-10T06:59:25.296Z,97497.75
2018-08-10T07:01:52.459Z,97498.33
2018-08-10T07:04:19.617Z,97503.20
2018-08-10T07:06:46.735Z,97501.58
2018-08-10T07:09:13.880Z,97500.73
2018-08-10T07:11:41.019Z,97511.44
2018-08-10T07:14:08.182Z,97518.36
2018-08-10T07:16:36.383Z,97510.90
2018-08-10T07:19:03.532Z,97517.50
2018-08-10T07:21:30.704Z,97518.70
2018-08-10T07:23:58.059Z,97530.01
2018-08-10T07:26:25.281Z,97527.41
2018-08-10T07:28:52.452Z,97530.39
2018-08-10T07:31:19.591Z,97530.81
2018-08-10T07:33:46.732Z,97529.72
2018-08-10T07:36:13.947Z,97539.70
2018-08-10T07:38:41.095Z,97548.98
2018-08-10T07:41:08.228Z,97545.59
2018-08-10T07:43:35.396Z,97545.55
2018-08-10T07:46:02.517Z,97547.78
2018-08-10T07:48:29.764Z,97554.63
2018-08-10T07:50:56.993Z,97557.67
2018-08-10T07:53:24.129Z,97554.31
2018-08-10T07:55:51.268Z,97547.10
2018-08-10T07:58:18.375Z,97552.88
2018-08-10T08:00:45.530Z,97562.92
2018-08-10T08:03:12.803Z,97553.23
2018-08-10T08:05:39.959Z,97560.72
2018-08-10T08:08:07.117Z,97558.48
2018-08-10T08:13:00.920Z,97571.09
2018-08-10T08:15:28.049Z,97569.79
2018-08-10T08:17:55.289Z,97574.02
2018-08-10T08:20:22.472Z,97573.36
2018-08-10T08:23:02.774Z,97579.45
2018-08-10T08:25:29.943Z,97572.83
2018-08-10T08:27:57.116Z,97578.42
2018-08-10T08:30:24.327Z,97580.84
2018-08-10T08:32:51.488Z,97584.28
2018-08-10T08:35:18.749Z,97588.70
2018-08-10T08:37:46.035Z,97591.50
2018-08-10T08:40:16.348Z,97607.47
2018-08-10T08:42:44.607Z,97597.67
2018-08-10T08:45:46.692Z,97594.48
2018-08-10T08:48:13.834Z,97603.33
2018-08-10T08:50:42.383Z,97595.59
2018-08-10T08:53:09.615Z,97599.41
2018-08-10T08:55:42.845Z,97607.69
2018-08-10T08:58:10.062Z,97608.66
2018-08-10T09:00:37.280Z,97605.45
2018-08-10T09:03:04.818Z,97602.63
2018-08-10T09:05:32.055Z,97613.66
2018-08-10T09:07:59.249Z,97619.55
2018-08-10T09:10:26.400Z,97619.69
2018-08-10T09:12:53.607Z,97623.91
2018-08-10T09:15:21.548Z,97627.07
2018-08-10T09:17:48.789Z,97627.07
2018-08-10T09:20:15.933Z,97631.95
2018-08-10T09:22:43.207Z,97623.83
2018-08-10T09:25:12.548Z,97624.41
2018-08-10T09:27:39.743Z,97625.67
2018-08-10T09:30:08.596Z,97630.83
2018-08-10T09:32:35.869Z,97633.36
2018-08-10T09:35:04.513Z,97638.20
2018-08-10T09:37:31.857Z,97639.09
2018-08-10T09:39:58.994Z,97635.48
2018-08-10T09:42:26.248Z,97634.73
2018-08-10T09:44:53.408Z,97635.61
2018-08-10T09:47:20.576Z,97637.84
2018-08-10T09:49:48.862Z,97642.31
2018-08-10T09:52:16.156Z,97635.12
2018-08-10T09:55:29.112Z,97635.66
2018-08-10T09:57:57.693Z,97636.78
2018-08-10T10:00:30.603Z,97641.73
2018-08-10T10:03:03.520Z,97638.27
2018-08-10T10:05:30.809Z,97629.52
2018-08-10T10:07:57.992Z,97633.92
2018-08-10T10:10:25.255Z,97633.98
2018-08-10T10:12:52.724Z,97634.48
2018-08-10T10:15:20.309Z,97635.09
2018-08-10T10:17:47.491Z,97639.14
2018-08-10T10:20:15.116Z,97640.28
2018-08-10T10:22:42.301Z,97638.10
2018-08-10T10:25:09.548Z,97632.06
2018-08-10T10:27:36.768Z,97641.41
2018-08-10T10:30:05.512Z,97643.20
2018-08-10T10:32:32.763Z,97637.23
2018-08-10T10:34:59.928Z,97630.04
2018-08-10T10:37:27.177Z,97637.42
2018-08-10T10:39:54.385Z,97638.97
2018-08-10T10:42:21.548Z,97648.08
2018-08-10T10:44:49.004Z,97632.15
2018-08-10T10:47:16.422Z,97627.17
2018-08-10T10:49:43.628Z,97632.27
2018-08-10T10:52:10.816Z,97624.22
2018-08-10T10:54:38.032Z,97637.22
2018-08-10T10:57:05.340Z,97633.76
2018-08-10T10:59:32.553Z,97641.16
2018-08-10T11:01:59.755Z,97634.60
2018-08-10T11:04:26.943Z,97639.41
2018-08-10T11:06:54.150Z,97632.33
2018-08-10T11:09:21.458Z,97638.89
2018-08-10T11:11:48.641Z,97637.22
2018-08-10T11:14:15.783Z,97630.06
2018-08-10T11:16:42.992Z,97631.74
2018-08-10T11:19:10.155Z,97632.61
2018-08-10T11:21:37.308Z,97638.57
2018-08-10T11:24:04.511Z,97638.85
2018-08-10T11:26:31.721Z,97638.08
2018-08-10T11:28:58.984Z,97639.72
2018-08-10T11:31:26.185Z,97643.45
2018-08-10T11:33:53.373Z,97644.52
2018-08-10T11:36:20.547Z,97644.13
2018-08-10T11:38:47.747Z,97635.10
2018-08-10T11:41:14.964Z,97626.42
2018-08-10T11:43:42.220Z,97626.67
2018-08-10T11:46:09.462Z,97636.06
2018-08-10T11:48:36.643Z,97627.73
2018-08-10T11:51:03.836Z,97620.88
2018-08-10T11:53:31.598Z,97627.61
2018-08-10T11:55:58.827Z,97633.48
2018-08-10T11:58:25.989Z,97636.05
2018-08-10T12:00:53.220Z,97631.14
2018-08-10T12:03:20.450Z,97629.66
2018-08-10T12:05:47.690Z,97633.09
2018-08-10T12:08:14.947Z,97632.27
2018-08-10T12:10:42.172Z,97635.64
2018-08-10T12:13:09.408Z,97634.53
2018-08-10T12:15:36.629Z,97632.53
2018-08-10T12:18:03.860Z,97632.92
2018-08-10T12:20:31.063Z,97622.91
2018-08-10T12:22:58.252Z,97624.14
2018-08-10T12:25:25.515Z,97622.55
2018-08-10T12:27:52.787Z,97622.76
2018-08-10T12:30:20.055Z,97619.75
2018-08-10T12:32:47.212Z,97621.78
2018-08-10T12:35:14.376Z,97631.61
2018-08-10T12:37:41.588Z,97625.13
2018-08-10T12:40:08.818Z,97631.88
2018-08-10T12:42:36.382Z,97630.97
2018-08-10T12:45:05.043Z,97627.73
2018-08-10T12:47:32.250Z,97633.33
2018-08-10T12:49:59.464Z,97639.52
2018-08-10T12:52:26.695Z,97633.04
2018-08-10T12:54:53.912Z,97631.23
2018-08-10T12:57:21.305Z,97638.70
2018-08-10T12:59:48.452Z,97635.80
2018-08-10T13:02:15.675Z,97637.99
2018-08-10T13:04:42.890Z,97636.14
2018-08-10T13:07:10.059Z,97633.92
2018-08-10T13:09:37.293Z,97638.36
2018-08-10T13:12:04.546Z,97640.91
2018-08-10T13:14:31.818Z,97638.30
2018-08-10T13:16:58.985Z,97638.99
2018-08-10T13:19:26.184Z,97637.34
2018-08-10T13:21:53.405Z,97635.63
2018-08-10T13:24:20.642Z,97625.14
2018-08-10T13:26:47.864Z,97629.01
2018-08-10T13:29:15.089Z,97628.57
2018-08-10T13:31:42.276Z,97626.45
2018-08-10T13:34:09.648Z,97629.84
2018-08-10T13:36:36.926Z,97623.50
2018-08-10T13:39:07.788Z,97623.37
2018-08-10T13:41:35.126Z,97623.55
2018-08-10T13:44:02.528Z,97619.50
2018-08-10T13:46:29.699Z,97620.81
2018-08-10T13:48:57.007Z,97615.73
2018-08-10T13:51:24.166Z,97618.12
2018-08-10T13:53:51.481Z,97613.08
2018-08-10T13:56:18.652Z,97608.04
2018-08-10T13:58:45.993Z,97600.89
2018-08-10T14:01:13.116Z,97601.59
2018-08-10T14:03:40.344Z,97601.74
2018-08-10T14:06:07.640Z,97597.75
2018-08-10T14:08:34.773Z,97590.42
2018-08-10T14:11:01.984Z,97591.09
2018-08-10T14:13:29.189Z,97581.81
2018-08-10T14:15:56.452Z,97588.07
2018-08-10T14:18:23.579Z,97584.16
2018-08-10T14:20:50.780Z,97583.58
2018-08-10T14:23:17.948Z,97571.78
2018-08-10T14:25:45.118Z,97573.98
2018-08-10T14:28:12.418Z,97567.17
2018-08-10T14:30:39.613Z,97567.83
2018-08-10T14:33:06.846Z,97568.25
2018-08-10T14:35:34.088Z,97565.84
2018-08-10T14:38:01.271Z,97561.28
2018-08-10T14:40:28.449Z,97567.07
2018-08-10T14:42:55.709Z,97559.92
2018-08-10T14:45:22.881Z,97557.98
2018-08-10T14:47:50.074Z,97559.91
2018-08-10T14:50:17.305Z,97560.47
2018-08-10T14:52:44.618Z,97559.97
2018-08-10T14:55:13.733Z,97556.59
2018-08-10T14:57:40.985Z,97552.17
2018-08-10T15:00:13.245Z,97551.59
2018-08-10T15:02:40.421Z,97549.61
2018-08-10T15:05:08.023Z,97550.11
2018-08-10T15:07:35.195Z,97539.52
2018-08-10T15:10:02.538Z,97542.59
2018-08-10T15:12:29.886Z,97536.17
2018-08-10T15:14:56.913Z,97536.64
2018-08-10T15:17:24.103Z,97536.30
2018-08-10T15:19:51.300Z,97532.98
2018-08-10T15:22:18.538Z,97536.41
2018-08-10T15:24:45.613Z,97533.45
2018-08-10T15:27:12.865Z,97527.77
2018-08-10T15:29:40.164Z,97528.06
2018-08-10T15:32:07.394Z,97533.23
2018-08-10T15:34:34.543Z,97531.22
2018-08-10T15:37:01.770Z,97524.33
2018-08-10T15:39:28.908Z,97529.34
2018-08-10T15:41:56.120Z,97532.16
2018-08-10T15:44:23.232Z,97524.77
2018-08-10T15:46:50.520Z,97520.22
2018-08-10T15:49:17.692Z,97512.66
2018-08-10T15:51:44.896Z,97515.33
2018-08-10T15:54:12.092Z,97513.12
2018-08-10T15:56:39.517Z,97504.62
2018-08-10T15:59:06.614Z,97510.00
2018-08-10T16:01:33.948Z,97504.65
2018-08-10T16:04:01.085Z,97507.80
2018-08-10T16:06:28.291Z,97506.55
2018-08-10T16:08:55.720Z,97507.05
2018-08-10T16:11:22.893Z,97498.39
2018-08-10T16:13:50.195Z,97503.40
2018-08-10T16:16:17.485Z,97496.81
2018-08-10T16:18:45.038Z,97497.52
2018-08-10T16:21:12.262Z,97496.13
2018-08-10T16:23:39.374Z,97497.84
2018-08-10T16:26:06.873Z,97500.66
2018-08-10T16:28:34.061Z,97495.91
2018-08-10T16:31:01.246Z,97490.38
2018-08-10T16:33:28.512Z,97497.12
2018-08-10T16:35:55.743Z,97498.12
2018-08-10T16:38:23.077Z,97497.22
2018-08-10T16:40:50.227Z,97502.72
2018-08-10T16:43:17.499Z,97500.63
2018-08-10T16:45:44.727Z,97495.11
2018-08-10T16:48:11.931Z,97491.22
2018-08-10T16:51:16.615Z,97495.86
2018-08-10T16:53:43.768Z,97490.09
2018-08-10T16:56:11.053Z,97498.38
2018-08-10T16:58:38.284Z,97492.95
2018-08-10T17:01:06.817Z,97495.48
2018-08-10T17:03:34.069Z,97493.52
2018-08-10T17:06:01.298Z,97500.87
2018-08-10T17:08:28.595Z,97500.87
2018-08-10T17:10:55.811Z,97499.52
2018-08-10T17:13:23.012Z,97503.56
2018-08-10T17:15:50.191Z,97502.22
2018-08-10T17:18:17.332Z,97502.00
2018-08-10T17:20:44.642Z,97504.12
2018-08-10T17:23:12.015Z,97505.84
2018-08-10T17:25:39.254Z,97505.09
2018-08-10T17:28:06.460Z,97510.05
2018-08-10T17:30:33.849Z,97510.44
2018-08-10T17:33:01.036Z,97511.81
2018-08-10T17:35:28.321Z,97503.55
2018-08-10T17:38:02.192Z,97506.44
2018-08-10T17:40:29.947Z,97513.91
2018-08-10T17:42:57.076Z,97514.30
2018-08-10T17:45:24.317Z,97505.80
2018-08-10T17:47:51.503Z,97513.39
2018-08-10T17:50:19.835Z,97506.64
2018-08-10T17:52:49.481Z,97505.09
2018-08-10T17:55:17.000Z,97501.59
2018-08-10T17:57:44.505Z,97521.11
2018-08-10T18:00:15.222Z,97520.77
2018-08-10T18:02:42.872Z,97521.34
2018-08-10T18:05:11.840Z,97524.09
2018-08-10T18:07:39.912Z,97531.52
2018-08-10T18:10:08.033Z,97540.15
2018-08-10T18:12:36.352Z,97543.11
2018-08-10T18:15:05.845Z,97547.53
2018-08-10T18:17:33.038Z,97548.53
2018-08-10T18:20:00.225Z,97549.52
2018-08-10T18:22:27.374Z,97561.63
2018-08-10T18:24:54.638Z,97555.30
2018-08-10T18:27:21.869Z,97567.60
2018-08-10T18:29:48.973Z,97569.53
2018-08-10T18:32:16.132Z,97566.23
2018-08-10T18:34:43.275Z,97576.33
2018-08-10T18:37:10.481Z,97579.08
2018-08-10T18:39:37.679Z,97581.56
2018-08-10T18:42:05.231Z,97582.36
2018-08-10T18:44:32.412Z,97579.89
2018-08-10T18:46:59.640Z,97590.64
2018-08-10T18:49:26.823Z,97586.66
2018-08-10T18:51:54.025Z,97590.53
2018-08-10T18:54:21.215Z,97591.58
2018-08-10T18:56:48.513Z,97590.11
2018-08-10T18:59:15.708Z,97592.19
2018-08-10T19:01:42.896Z,97596.62
2018-08-10T19:04:10.118Z,97597.80
2018-08-10T19:06:37.324Z,97601.37
2018-08-10T19:09:07.265Z,97598.11
2018-08-10T19:11:34.482Z,97606.73
2018-08-10T19:14:01.649Z,97606.78
2018-08-10T19:16:28.856Z,97606.19
2018-08-10T19:18:56.055Z,97608.97
2018-08-10T19:21:23.236Z,97607.17
2018-08-10T19:23:50.377Z,97609.00
2018-08-10T19:26:17.610Z,97607.66
2018-08-10T19:28:44.777Z,97612.25
2018-08-10T19:31:11.945Z,97609.65
2018-08-10T19:33:39.234Z,97603.78
2018-08-10T19:36:06.400Z,97610.80
2018-08-10T19:38:34.332Z,97608.62
2018-08-10T19:41:01.577Z,97615.83
2018-08-10T19:43:28.771Z,97610.47
2018-08-10T19:45:56.002Z,97608.83
2018-08-10T19:48:23.266Z,97610.38
2018-08-10T19:50:50.480Z,97617.44
2018-08-10T19:53:17.695Z,97617.74
2018-08-10T19:55:44.911Z,97615.73
2018-08-10T19:58:12.117Z,97620.06
2018-08-10T20:00:39.362Z,97615.83
2018-08-10T20:03:06.561Z,97620.63
2018-08-10T20:05:33.724Z,97615.61
2018-08-10T20:08:00.973Z,97620.48
2018-08-10T20:10:28.158Z,97618.20
2018-08-10T20:12:55.337Z,97615.83
2018-08-10T20:15:22.628Z,97622.37
2018-08-10T20:17:49.767Z,97616.56
2018-08-10T20:20:18.000Z,97619.09
2018-08-10T20:22:45.680Z,97618.91
2018-08-10T20:25:13.320Z,97615.62
2018-08-10T20:27:40.559Z,97616.63
2018-08-10T20:30:10.476Z,97617.88
2018-08-10T20:32:37.974Z,97619.42
2018-08-10T20:35:07.148Z,97615.41
2018-08-10T20:37:34.364Z,97621.16
2018-08-10T20:40:01.554Z,97621.23
2018-08-10T20:42:28.784Z,97619.12
2018-08-10T20:44:56.070Z,97622.67
2018-08-10T20:47:23.273Z,97622.91
2018-08-10T20:49:50.476Z,97618.83
2018-08-10T20:52:17.644Z,97626.39
2018-08-10T20:54:44.834Z,97622.36
2018-08-10T20:57:12.047Z,97621.56
2018-08-10T20:59:39.325Z,97619.17
2018-08-10T21:02:06.668Z,97613.61
2018-08-10T21:04:33.903Z,97615.58
2018-08-10T21:07:01.188Z,97610.51
2018-08-10T21:09:28.452Z,97611.95
2018-08-10T21:11:55.648Z,97613.23
2018-08-10T21:14:22.859Z,97615.01
2018-08-10T21:16:50.101Z,97618.77
2018-08-10T21:19:17.278Z,97624.41
2018-08-10T21:21:44.468Z,97611.77
2018-08-10T21:24:11.686Z,97612.47
2018-08-10T21:26:38.851Z,97622.62
2018-08-10T21:29:06.006Z,97615.36
2018-08-10T21:31:33.163Z,97616.36
2018-08-10T21:34:00.361Z,97619.03
2018-08-10T21:36:27.511Z,97617.59
2018-08-10T21:38:54.705Z,97624.68
2018-08-10T21:41:21.940Z,97620.23
2018-08-10T21:43:49.114Z,97618.84
2018-08-10T21:46:16.247Z,97621.46
2018-08-10T21:48:43.433Z,97621.92
2018-08-10T21:54:28.370Z,97622.13
2018-08-10T21:56:55.628Z,97621.10
2018-08-10T21:59:22.783Z,97624.20
2018-08-10T22:01:50.039Z,97616.39
2018-08-10T22:04:17.234Z,97627.05
2018-08-10T22:06:44.476Z,97627.70
2018-08-10T22:09:11.648Z,97622.53
2018-08-10T22:11:38.950Z,97620.11
2018-08-10T22:14:11.677Z,97620.75
2018-08-10T22:16:44.677Z,97618.85
2018-08-10T22:19:12.735Z,97613.77
2018-08-10T22:21:40.376Z,97611.66
2018-08-10T22:24:07.568Z,97618.09
2018-08-10T22:26:34.773Z,97613.98
2018-08-10T22:29:01.965Z,97618.77
2018-08-10T22:31:29.157Z,97620.02
2018-08-10T22:33:56.371Z,97615.83
2018-08-10T22:36:23.642Z,97621.92
2018-08-10T22:38:57.715Z,97618.72
2018-08-10T22:41:24.969Z,97617.25
2018-08-10T22:43:52.160Z,97622.82
2018-08-10T22:46:25.473Z,97614.56
2018-08-10T22:48:52.700Z,97619.34
2018-08-10T22:51:19.920Z,97613.67
2018-08-10T22:53:47.217Z,97621.58
2018-08-10T22:56:14.432Z,97615.98
2018-08-10T22:58:41.739Z,97612.21
2018-08-10T23:01:09.012Z,97610.00
2018-08-10T23:03:39.632Z,97610.78
2018-08-10T23:06:06.860Z,97614.01
2018-08-10T23:08:34.195Z,97607.24
2018-08-10T23:11:01.316Z,97612.89
2018-08-10T23:13:28.643Z,97609.00
2018-08-10T23:15:56.338Z,97605.21
2018-08-10T23:18:23.516Z,97611.89
2018-08-10T23:20:50.708Z,97607.78
2018-08-10T23:23:17.947Z,97607.56
2018-08-10T23:25:45.162Z,97609.67
2018-08-10T23:30:46.432Z,97603.00
2018-08-10T23:33:13.636Z,97606.28
2018-08-10T23:35:40.787Z,97602.28
2018-08-10T23:38:08.013Z,97599.95
2018-08-10T23:43:38.068Z,97593.38
2018-08-10T23:46:05.860Z,97592.84
2018-08-10T23:48:33.049Z,97588.82
2018-08-10T23:51:00.228Z,97585.48
2018-08-10T23:53:27.377Z,97585.06
2018-08-10T23:55:54.572Z,97587.93
2018-08-10T23:58:21.839Z,97580.38
